Cardiff-Wales, United Kingdom

7:25 PM BST on October 25, 2014 (GMT +0100)
Cardiff | Change Station
CLOSE
Current Station
Airport
Location: Cardiff-Wales,
Elevation: 220 ft
Nearby Weather Stations

Elev 220 ft 51.40 °N, 3.34 °W | Updated 5 minutes ago

Overcast
Overcast
55 °F
Feels Like 55 °F
N
14
Wind Variable Wind from WSW

Today
High -- | Low -- °F
--% Chance of Precip.
Yesterday
High -- | Low -- °F
Precip. -- in
7:54 AM 6:00 PM
Waxing Crescent, 4% visible
Pressure 30.09 in
Visibility 6.2 miles
Clouds Few 1600 ft
Overcast 3000 ft
Dew Point 52 °F
Humidity 88%
Rainfall 0.00 in
Snow Depth Not available.
UV 0 out of 12
Pollen Not available.
Air Quality Not available.
Flu Activity Not available.
METAR EGFF 251820Z AUTO 25012KT 9999 FEW016 OVC030 13/11 Q1019

More Conditions Fewer Conditions

Pressure 30.09 in
Visibility 6.2 miles
Clouds Few 1600 ft
Overcast 3000 ft
Dew Point 52 °F
Humidity 88%
Rainfall 0.00 in
Snow Depth Not available.
UV 0 out of 12
Pollen Not available.
Air Quality Not available.
Flu Activity Not available.
METAR EGFF 251820Z AUTO 25012KT 9999 FEW016 OVC030 13/11 Q1019

More Conditions Fewer Conditions

10-Day Weather Forecast

Almanac

Astronomy

Oct. 25, 2014 Rise Set
Actual Time 7:54 AM BST 6:00 PM BST
Civil Twilight 7:19 AM BST 6:34 PM BST
Nautical Twilight 6:40 AM BST 7:13 PM BST
Astronomical Twilight 6:02 AM BST 7:51 PM BST
Moon 9:26 AM BST 7:02 PM BST
Length of Visible Light 11h 14m
Length of Day
10h 05m
Tomorrow will be 3m 41s shorter.
Waxing Crescent, 4% of the Moon is Illuminated
Today
Waxing Crescent
Oct 30
First Quarter
Nov 6
Full
Nov 14
Last Quarter
Nov 22
New

Today's Extremes

Country Highs Country Lows

Community

WunderPhotos

Upload Photos

1,764,931 photos uploaded!

Nearby

Snow Depth

Not available.

Earthquake Activity

City Distance Mag. Time & Date
No recent earthquake activity has been reported nearby.
Minimum magnitude displayed is 2.5.

Coastal Water Temperatures

Place Temperature
No Stations Reporting

Nearby Weather Stations